Terminal Aerodrome Forecast
Issued by NWS

Home | Current Version | Previous Version | Text Only | Print | Product List | Glossary On
Versions: 1 2 3 4 5 6 7 8 9 10 11 12 13 14 15 16 17 18 19 20 21 22 23 24 25 26 27 28 29 30 31 32 33 34 35 36 37 38 39 40 41 42 43
000
FTUS41 KBOX 272133 AAB
TAFBED
TAF AMD
KBED 272133Z 2722/2818 00000KT P6SM SCT015 OVC040
     FM280000 00000KT P6SM OVC020
     FM280800 36005KT 3SM -SHSN OVC015
     FM281000 36006KT 2SM -SHSN OVC008=

USA.gov is the U.S. government's official web portal to all federal, state and local government web resources and services.